Volk Field
KVOK : now visible

Airfield :











YOU CAN JOIN US ON...

 
LOGIN :

Register | Disclaimer

   EN    FR    IT 

 









Legend :    VFR   Marginal VFR   IFR   Intensive IFR   Very Intensive IFR
Visi :
Ceiling :
>= 8 km
>= 3000ft
5 to 8 km
1000 to 3000 ft
1500m to 5 km
500 to 1000 ft
800 to 1500m
200 to 500 ft
< 800m
< 200 ft
Symbols :   Thunderstorms  Fog  Heavy snow  Heavy precipitations  Wind > 20 kt






- Airport Elevation : 912 ft


KVOK - Volk Field

CURRENT METAR :
  • 162355Z AUTO 20013G17KT 10SM SCT055 30/22 A2970 RMK AO2 SLP054 60000 T02960220 10308 20259 55003 $

EXPIRED METARs :
  • 162255Z AUTO 18009KT 10SM SCT040 BKN050 30/23 A2969 RMK AO2 SLP051 T03020226 $
  • 162155Z 18010G16KT 10SM BKN045 BKN150 31/22 A2969 RMK AO2A SLP051 T03060222
  • 162055Z 19006KT 10SM BKN045 BKN150 30/22 A2971 RMK AO2A SLP058 T02980217 55010
  • 161955Z 20010KT 10SM SCT045 SCT150 BKN200 31/21 A2970 RMK AO2A SLP054 T03050210
  • 161855Z 19009KT 10SM FEW060 FEW140 SCT180 28/21 A2971 RMK AO2A SLP059 T02840206

TAF AMD TAF KVOK
Valid from the 16 at 21:00 until the 17 at 23:00 UTC


162135Z 1621/1723 20009KT 9999 FEW030 SCT060 BKN100 QNH2970INS
BECMG 1710/1711 19009KT 8000 -SHRA BKN020 OVC060 QNH2976INS TX29/1622Z TN19/1711Z LAST NO AMDS AFT 1621 NEXT 1709
KZAU FIR / North America



MET'MAP, your aeronautical weather chart ! - Copyright ORBIFLY December 2007 - Disclaimer

ORBIFLY MET'MAP TEAM :

Programming & Development : Alexandra Zaïnal
Original concept : Baudouin d'Aumeries
Technical & hardware support : Manuel Goepfert
Assistance : Marc-Olivier Méhu




SOURCES & CREDITS :

   NOAA       Earth
Advisory